Latest Weather Observations for Low Isles

IDQ60801

Issued at 10:23 am EST Monday 6 February 2023 (issued every 10 minutes, with the page automatically refreshed every 10 minutes)

About weather observations | Map of weather stations | Latest weather observations for QLD | Other Formats
Station Details ID: 031037 Name: LOW ISLES LIGHTHOUSE Lat: -16.38 Lon: 145.56 Height: 2.9 m
Data from the previous 72 hours. | See also: Recent months at Low Isles
Date/Time
EST
Temp
°C
App
Temp
°C
Dew
Point
°C
Rel
Hum
%
Delta-T
°C
Wind Press
QNH
hPa
Press
MSL
hPa
Rain since
9am
mm
Dir  Spd
km/h
Gust
km/h
Spd
kts
Gust
kts
06/10:00am 27.3 34.5 26.2 94 0.8 CALM 0 6 0 3 1008.8 1008.7 1.4
06/09:30am 26.7 31.2 25.8 95 0.6 NE 13 15 7 8 1009.0 1008.9 1.4
06/09:00am 26.4 29.7 25.7 96 0.5 ESE 19 24 10 13 1009.3 1009.2 14.0
06/08:30am 26.7 29.3 25.5 93 0.8 ESE 22 30 12 16 1009.1 1009.0 11.8
06/08:00am 27.1 30.2 25.7 92 1.0 ESE 20 26 11 14 1008.6 1008.5 11.8
06/07:30am 27.5 30.5 26.1 92 1.0 SE 22 26 12 14 1008.3 1008.2 11.6
06/07:00am 27.3 30.2 25.9 92 1.0 SE 22 28 12 15 1008.0 1007.9 11.6
06/06:30am 27.3 29.9 26.1 93 0.8 SE 24 28 13 15 1007.5 1007.4 11.6
06/06:00am 27.0 27.8 25.6 92 1.0 SE 32 33 17 18 1007.3 1007.2 11.6
06/05:30am 26.8 28.1 25.8 94 0.7 SE 30 35 16 19 1006.7 1006.6 11.6
06/05:00am 26.9 30.4 26.0 95 0.6 SSW 19 24 10 13 1006.5 1006.4 10.4
06/04:30am 27.5 31.6 26.3 93 0.9 SSE 17 28 9 15 1006.2 1006.1 7.6
06/04:00am 27.3 33.2 26.2 94 0.8 W 7 9 4 5 1006.2 1006.1 7.6
06/03:30am 27.4 32.4 26.5 95 0.6 WSW 13 15 7 8 1006.2 1006.1 7.6
06/03:00am 27.3 32.3 26.6 96 0.5 W 13 15 7 8 1006.1 1006.0 7.6
06/02:30am 27.0 32.6 26.3 96 0.5 NNW 9 13 5 7 1006.0 1005.9 7.6
06/02:00am 26.9 31.5 26.0 95 0.6 NNE 13 15 7 8 1006.2 1006.1 7.6
06/01:30am 26.9 31.1 26.0 95 0.6 NE 15 17 8 9 1006.5 1006.4 7.6
06/01:00am 27.0 31.3 26.1 95 0.6 NE 15 17 8 9 1006.7 1006.6 7.6
06/12:30am 27.1 31.9 26.2 95 0.6 NE 13 17 7 9 1006.9 1006.8 7.6
06/12:00am 27.4 33.7 26.5 95 0.6 S 6 9 3 5 1007.0 1006.9 7.6
 
Date/Time
EST
Temp
°C
App
Temp
°C
Dew
Point
°C
Rel
Hum
%
Delta-T
°C
Wind Press
QNH
hPa
Press
MSL
hPa
Rain since
9am
mm
Dir  Spd
km/h
Gust
km/h
Spd
kts
Gust
kts
05/11:30pm 27.3 33.7 26.6 96 0.5 S 6 7 3 4 1007.2 1007.1 7.6
05/11:00pm 27.2 33.4 26.3 95 0.6 SSW 6 9 3 5 1007.4 1007.3 7.6
05/10:30pm 27.3 33.3 26.4 95 0.6 SSW 7 11 4 6 1007.6 1007.5 7.6
05/10:00pm 27.2 32.5 26.5 96 0.5 S 11 13 6 7 1007.5 1007.4 7.6
05/09:30pm 27.3 32.1 26.2 94 0.8 SSE 13 15 7 8 1007.3 1007.2 5.6
05/09:00pm 27.3 32.1 26.2 94 0.8 SSE 13 15 7 8 1006.9 1006.8 5.6
05/08:30pm 27.3 31.8 26.4 95 0.6 SSE 15 17 8 9 1006.8 1006.7 5.6
05/08:00pm 27.1 31.9 26.2 95 0.6 SE 13 15 7 8 1006.3 1006.2 5.6
05/07:30pm 27.1 31.2 26.4 96 0.5 ESE 17 19 9 10 1006.0 1005.9 5.6
05/07:00pm 27.2 30.8 26.5 96 0.5 ESE 20 24 11 13 1005.8 1005.7 5.6
05/06:30pm 27.5 31.8 26.6 95 0.6 E 17 22 9 12 1005.6 1005.5 5.6
05/06:00pm 27.3 33.1 26.1 93 0.9 ESE 7 11 4 6 1005.1 1005.0 5.6
05/05:30pm 27.9 31.8 26.1 90 1.3 SE 17 20 9 11 1004.8 1004.7 2.6
05/05:00pm 28.5 33.6 26.1 87 1.7 SE 11 13 6 7 1004.6 1004.5 2.4
05/04:30pm 29.2 32.9 26.6 86 1.9 E 20 24 11 13 1004.2 1004.1 2.4
05/04:00pm 29.2 34.0 26.2 84 2.1 ESE 13 17 7 9 1004.1 1004.0 2.4
05/03:30pm 29.7 35.7 26.3 82 2.4 ENE 7 11 4 6 1004.2 1004.1 2.4
05/03:00pm 29.3 33.5 25.9 82 2.4 SE 15 17 8 9 1004.5 1004.4 2.4
05/02:30pm 29.5 33.9 26.3 83 2.3 SE 15 17 8 9 1004.8 1004.7 2.4
05/02:00pm 29.7 34.3 26.5 83 2.3 SE 15 19 8 10 1004.9 1004.8 2.4
05/01:30pm 30.1 35.6 26.7 82 2.4 ESE 11 17 6 9 1005.2 1005.1 2.4
05/01:00pm 30.5 36.7 27.7 85 2.0 E 11 15 6 8 1005.4 1005.3 2.4
05/12:30pm 29.2 34.9 27.0 88 1.6 NE 11 13 6 7 1006.2 1006.1 2.4
05/12:00pm 28.7 33.9 26.9 90 1.3 ENE 13 17 7 9 1006.8 1006.7 2.4
05/11:30am 27.3 30.3 26.2 94 0.8 NE 22 28 12 15 1007.0 1006.9 2.4
05/11:00am 27.5 31.2 26.6 95 0.6 NE 20 26 11 14 1007.0 1006.9 2.4
05/10:30am 27.5 32.7 26.3 93 0.9 ENE 11 17 6 9 1007.3 1007.2 2.2
05/10:00am 27.7 33.5 26.6 94 0.8 NE 9 11 5 6 1007.2 1007.1 0.0
05/09:30am 26.9 32.3 26.0 95 0.6 E 9 13 5 7 1007.1 1007.0 0.0
05/09:00am 27.0 32.8 26.1 95 0.6 E 7 11 4 6 1007.1 1007.0 5.6
05/08:30am 26.7 31.9 25.7 94 0.7 ENE 9 11 5 6 1006.6 1006.5 5.6
05/08:00am 26.5 30.8 25.5 94 0.7 NE 13 17 7 9 1006.2 1006.1 5.6
05/07:30am 26.7 28.9 25.5 93 0.8 NE 24 32 13 17 1005.8 1005.7 5.2
05/07:00am 27.5 33.0 26.1 92 1.0 SW 9 13 5 7 1005.5 1005.4 2.8
05/06:30am 27.0 31.9 25.8 93 0.8 WSW 11 13 6 7 1005.1 1005.0 2.8
05/06:00am 26.8 31.2 25.6 93 0.8 SW 13 15 7 8 1005.0 1004.9 2.8
05/05:30am 26.8 30.9 25.8 94 0.7 WSW 15 15 8 8 1004.5 1004.4 2.6
05/05:00am 26.4 30.1 25.2 93 0.8 SW 15 19 8 10 1004.1 1004.0 2.6
05/04:30am 26.6 30.1 25.4 93 0.8 WSW 17 19 9 10 1003.9 1003.8 2.4
05/04:00am 26.6 30.5 25.4 93 0.8 WNW 15 17 8 9 1004.0 1003.9 2.4
05/03:30am 26.8 31.9 25.6 93 0.8 SW 9 13 5 7 1003.6 1003.5 2.4
05/03:00am 27.0 31.6 26.0 94 0.7 SE 13 17 7 9 1003.6 1003.5 2.4
05/02:30am 27.5 31.7 25.9 91 1.1 S 15 17 8 9 1003.5 1003.4 1.8
05/02:00am 27.6 31.8 26.0 91 1.1 SSE 15 20 8 11 1003.6 1003.5 1.8
05/01:30am 27.6 30.3 25.6 89 1.4 SSE 22 24 12 13 1003.8 1003.7 1.8
05/01:00am 27.3 30.0 25.7 91 1.1 S 22 28 12 15 1004.3 1004.2 1.6
05/12:30am 27.3 30.2 25.9 92 1.0 SW 22 24 12 13 1004.5 1004.4 1.6
05/12:00am 27.2 29.6 25.8 92 1.0 SW 24 28 13 15 1004.9 1004.8 1.6
 
Date/Time
EST
Temp
°C
App
Temp
°C
Dew
Point
°C
Rel
Hum
%
Delta-T
°C
Wind Press
QNH
hPa
Press
MSL
hPa
Rain since
9am
mm
Dir  Spd
km/h
Gust
km/h
Spd
kts
Gust
kts
04/11:30pm 27.8 30.7 26.6 93 0.9 SW 24 28 13 15 1005.3 1005.2 1.6
04/11:00pm 27.6 34.3 26.5 94 0.8 NE 4 9 2 5 1005.4 1005.3 1.6
04/10:30pm 27.7 32.7 26.6 94 0.8 NNE 13 13 7 7 1005.4 1005.3 1.6
04/10:00pm 27.7 33.5 26.6 94 0.8 NNE 9 11 5 6 1005.1 1005.0 1.6
04/09:30pm 27.8 33.0 26.9 95 0.6 NNE 13 15 7 8 1004.8 1004.7 1.6
04/09:00pm 28.0 33.0 27.1 95 0.6 N 15 19 8 10 1004.6 1004.5 1.6
04/08:30pm 27.6 33.6 26.0 91 1.1 NE 6 11 3 6 1004.5 1004.4 1.6
04/08:00pm 28.8 31.3 26.0 85 2.0 NNE 24 35 13 19 1004.0 1003.9 0.0
04/07:30pm 29.0 33.1 26.4 86 1.9 NNE 17 20 9 11 1003.7 1003.6 0.0
04/07:00pm 29.2 32.8 26.2 84 2.1 NNE 19 20 10 11 1003.0 1002.9 0.0
04/06:30pm 29.5 33.5 26.7 85 2.0 NNE 19 20 10 11 1002.7 1002.6 0.0
04/06:00pm 29.6 34.0 26.8 85 2.0 NNE 17 20 9 11 1002.3 1002.2 0.0
04/05:30pm 29.7 34.2 26.9 85 2.0 N 17 20 9 11 1002.1 1002.0 0.0
04/05:00pm 30.0 34.0 26.8 83 2.3 N 19 20 10 11 1001.6 1001.5 0.0
04/04:30pm 30.3 34.3 27.1 83 2.3 NNE 20 24 11 13 1001.2 1001.1 0.0
04/04:00pm 30.5 34.3 27.3 83 2.3 N 22 26 12 14 1001.0 1000.9 0.0
04/03:30pm 31.1 35.2 27.2 80 2.8 N 20 26 11 14 1001.1 1001.0 0.0
04/03:00pm 31.0 33.8 26.9 79 3.0 N 26 28 14 15 1001.1 1001.0 0.0
04/02:30pm 31.3 34.9 27.0 78 3.1 N 22 26 12 14 1001.4 1001.3 0.0
04/02:00pm 30.7 33.6 26.6 79 2.9 N 24 28 13 15 1001.7 1001.6 0.0
04/01:30pm 30.8 34.3 26.3 77 3.2 N 20 24 11 13 1002.0 1001.9 0.0
04/01:00pm 30.6 34.4 26.7 80 2.8 N 20 24 11 13 1002.1 1002.0 0.0
04/12:30pm 31.3 36.5 27.4 80 2.8 N 15 19 8 10 1002.4 1002.3 0.0
04/12:00pm 31.6 37.9 27.3 78 3.1 NE 9 13 5 7 1002.9 1002.8 0.0
04/11:30am 31.1 37.0 26.8 78 3.1 NNE 9 11 5 6 1003.3 1003.2 0.0
04/11:00am 30.4 36.6 26.3 79 2.9 NNW 6 7 3 4 1003.5 1003.4 0.0
04/10:30am 29.9 35.2 26.5 82 2.4 NNW 11 13 6 7 1003.6 1003.5 0.0
04/10:00am 29.7 35.3 26.9 85 2.0 W 11 13 6 7 1003.6 1003.5 0.0
04/09:30am 29.0 33.9 26.4 86 1.9 W 13 15 7 8 1003.7 1003.6 0.0
04/09:00am 28.4 32.8 26.2 88 1.6 WSW 15 17 8 9 1003.6 1003.5 0.6
04/08:30am 28.0 31.7 25.8 88 1.6 WSW 17 20 9 11 1003.4 1003.3 0.6
04/08:00am 28.3 32.5 25.9 87 1.7 WSW 15 19 8 10 1003.2 1003.1 0.6
04/07:30am 28.1 32.4 25.5 86 1.8 SW 13 17 7 9 1002.9 1002.8 0.6
04/07:00am 27.8 31.4 25.0 85 2.0 SW 15 17 8 9 1002.7 1002.6 0.6
04/06:30am 27.7 31.8 25.7 89 1.4 W 15 19 8 10 1002.5 1002.4 0.6
04/06:00am 27.7 31.5 25.3 87 1.7 WSW 15 17 8 9 1002.1 1002.0 0.6
04/05:30am 27.9 32.0 25.7 88 1.6 WSW 15 20 8 11 1001.4 1001.3 0.6
04/05:00am 27.9 30.1 25.5 87 1.7 W 24 28 13 15 1001.0 1000.9 0.6
04/04:30am 28.0 31.0 25.6 87 1.7 W 20 28 11 15 1000.5 1000.4 0.6
04/04:00am 28.3 29.6 25.3 84 2.1 WNW 28 33 15 18 1000.4 1000.3 0.6
04/03:30am 28.0 30.7 25.6 87 1.7 W 22 26 12 14 1000.4 1000.3 0.6
04/03:00am 27.9 31.3 25.9 89 1.4 NW 19 26 10 14 1000.4 1000.3 0.6
04/02:30am 27.7 31.9 25.9 90 1.3 NNW 15 17 8 9 1000.6 1000.5 0.6
04/02:00am 27.8 31.3 26.0 90 1.3 W 19 24 10 13 1000.8 1000.7 0.6
04/01:30am 27.4 30.8 25.8 91 1.1 WSW 19 20 10 11 1001.0 1000.9 0.6
04/01:00am 27.3 31.6 25.5 90 1.3 WSW 13 17 7 9 1001.2 1001.1 0.6
04/12:30am 27.5 31.9 25.1 87 1.7 SW 11 13 6 7 1001.6 1001.5 0.6
04/12:00am 27.4 31.5 25.2 88 1.5 SW 13 15 7 8 1002.2 1002.1 0.6
 
Date/Time
EST
Temp
°C
App
Temp
°C
Dew
Point
°C
Rel
Hum
%
Delta-T
°C
Wind Press
QNH
hPa
Press
MSL
hPa
Rain since
9am
mm
Dir  Spd
km/h
Gust
km/h
Spd
kts
Gust
kts
03/11:30pm 27.3 31.6 25.5 90 1.3 SW 13 15 7 8 1002.8 1002.7 0.6
03/11:00pm 27.7 32.0 25.5 88 1.6 W 13 15 7 8 1002.8 1002.7 0.6
03/10:30pm 27.5 31.7 25.9 91 1.1 NW 15 17 8 9 1002.7 1002.6 0.6
03/10:00pm 27.2 30.2 25.6 91 1.1 NW 20 22 11 12 1002.8 1002.7 0.6
03/09:30pm 27.3 31.1 25.9 92 1.0 NW 17 20 9 11 1002.7 1002.6 0.6
03/09:00pm 27.3 29.9 25.5 90 1.3 WNW 22 26 12 14 1002.5 1002.4 0.6
03/08:30pm 27.0 28.6 25.8 93 0.8 WNW 28 35 15 19 1001.4 1001.3 0.6
03/08:00pm 27.5 26.5 26.1 92 1.0 WNW 43 50 23 27 1001.3 1001.2 0.0
03/07:50pm 27.7 24.1 24.7 84 2.1 NW 52 69 28 37 1001.6 1001.5 0.0
03/07:48pm 27.8 23.6 24.4 82 2.4 NW 54 69 29 37 1001.5 1001.4 0.0
03/07:30pm 29.0 28.2 27.2 90 1.3 N 46 57 25 31 1000.5 1000.4 0.0
03/07:00pm 29.3 30.6 27.3 89 1.4 N 35 46 19 25 1000.1 1000.0 0.0
03/06:30pm 29.3 29.9 27.3 89 1.4 N 39 46 21 25 999.5 999.4 0.0
03/06:00pm 29.3 29.0 27.1 88 1.6 N 43 50 23 27 999.1 999.0 0.0
03/05:30pm 29.5 29.5 27.1 87 1.7 N 41 46 22 25 998.8 998.7 0.0
03/05:00pm 29.8 30.6 27.6 88 1.6 N 39 46 21 25 998.6 998.5 0.0
03/04:30pm 29.9 30.3 27.1 85 2.0 N 39 46 21 25 998.5 998.4 0.0
03/04:00pm 30.3 31.8 27.5 85 2.0 N 35 39 19 21 998.4 998.3 0.0
03/03:30pm 30.5 32.4 27.3 83 2.3 N 32 35 17 19 998.5 998.4 0.0
03/03:00pm 31.5 34.0 27.6 80 2.8 N 30 35 16 19 998.8 998.7 0.0
03/02:30pm 31.5 33.2 27.0 77 3.2 N 32 33 17 18 999.0 998.9 0.0
03/02:00pm 31.7 34.8 27.4 78 3.1 N 26 32 14 17 999.3 999.2 0.0
03/01:30pm 31.3 34.3 27.2 79 3.0 N 26 30 14 16 999.7 999.6 0.0
03/01:00pm 33.0 37.2 27.0 70 4.4 NNE 19 22 10 12 1000.3 1000.2 0.0
03/12:30pm 32.6 38.0 27.1 73 4.0 NE 13 15 7 8 1000.8 1000.7 0.0
03/12:00pm 32.4 38.3 26.2 70 4.5 ESE 7 11 4 6 1001.1 1001.0 0.0
03/11:30am 31.1 36.0 25.9 74 3.7 SE 11 15 6 8 1001.7 1001.6 0.0
03/11:00am 30.5 36.1 25.8 76 3.3 S 7 9 4 5 1002.2 1002.1 0.0
03/10:30am 31.0 36.8 26.0 74 3.6 WNW 7 9 4 5 1002.5 1002.4 0.0

Other formats

Comma delimited format used in spreadsheet applications
http://www.bom.gov.au/fwo/IDQ60801/IDQ60801.94285.axf

JavaScript Object Notation format (JSON) in row-major order
http://www.bom.gov.au/fwo/IDQ60801/IDQ60801.94285.json

Data quality

Most of these data are generated automatically and are frequently updated. Quality checks on data are not normally performed. It is possible for incorrect values to appear. Refer to information at About Latest Weather Observations and please check the disclaimer before using these data.